Time;durP1;ratioP1;P1;durP2;ratioP2;P2;SDS_P1;SDS_P2;PMS_P1;PMS_P2;Temp;Humidity;BMP_temperature;BMP_pressure;BME280_temperature;BME280_humidity;BME280_pressure;Samples;Min_cycle;Max_cycle;Signal;HPM_P1;HPM_P2
2023/08/11 00:02:07;;;;;;;8.00;7.17;;;;;;;;;;5074564;28;20616;-66
2023/08/11 00:04:35;;;;;;;16.80;8.27;;;;;;;;;;5075738;28;20811;-66
2023/08/11 00:07:04;;;;;;;15.93;7.33;;;;;;;;;;5075960;28;20474;-66
2023/08/11 00:09:31;;;;;;;8.03;7.00;;;;;;;;;;5075976;28;20482;-66
2023/08/11 00:11:58;;;;;;;10.70;7.33;;;;;;;;;;5076004;28;20450;-66
2023/08/11 00:14:26;;;;;;;14.03;7.43;;;;;;;;;;5075478;28;20921;-66
2023/08/11 00:16:56;;;;;;;9.10;8.20;;;;;;;;;;5076164;28;20441;-66
2023/08/11 00:19:23;;;;;;;11.53;7.13;;;;;;;;;;5075570;28;21032;-67
2023/08/11 00:21:50;;;;;;;13.13;7.47;;;;;;;;;;5075803;28;20440;-66
2023/08/11 00:24:17;;;;;;;11.97;6.93;;;;;;;;;;5075325;28;20451;-66
2023/08/11 00:26:44;;;;;;;8.50;7.30;;;;;;;;;;5075255;28;20494;-66
2023/08/11 00:29:12;;;;;;;8.10;7.20;;;;;;;;;;5075855;28;20455;-66
2023/08/11 00:31:39;;;;;;;8.50;6.93;;;;;;;;;;5075655;28;20440;-66
2023/08/11 00:34:08;;;;;;;11.93;8.60;;;;;;;;;;5075517;28;20432;-65
2023/08/11 00:36:35;;;;;;;10.73;8.20;;;;;;;;;;5075506;28;20436;-64
2023/08/11 00:39:02;;;;;;;13.03;7.03;;;;;;;;;;5075077;28;20516;-65
2023/08/11 00:41:30;;;;;;;13.20;7.43;;;;;;;;;;5075111;28;20441;-65
2023/08/11 00:43:57;;;;;;;9.80;8.53;;;;;;;;;;5075570;28;20443;-65
2023/08/11 00:46:25;;;;;;;14.60;8.53;;;;;;;;;;5075270;28;20787;-65
2023/08/11 00:48:53;;;;;;;14.80;8.30;;;;;;;;;;5075287;28;20526;-65
2023/08/11 00:51:23;;;;;;;10.00;9.00;;;;;;;;;;5075544;28;20837;-65
2023/08/11 00:53:51;;;;;;;10.93;8.80;;;;;;;;;;5074958;28;20471;-65
2023/08/11 00:56:20;;;;;;;13.27;10.00;;;;;;;;;;5074996;28;20452;-65
2023/08/11 00:58:47;;;;;;;12.00;9.10;;;;;;;;;;5074694;28;20476;-65
2023/08/11 01:01:14;;;;;;;9.20;8.30;;;;;;;;;;5075246;28;20541;-65
2023/08/11 01:03:43;;;;;;;9.87;8.90;;;;;;;;;;5075416;28;20527;-65
2023/08/11 01:06:18;;;;;;;19.17;8.60;;;;;;;;;;5074889;28;20489;-65
2023/08/11 01:08:50;;;;;;;10.37;8.83;;;;;;;;;;5075371;28;20481;-65
2023/08/11 01:11:21;;;;;;;15.63;9.57;;;;;;;;;;5074673;28;20446;-66
2023/08/11 01:13:53;;;;;;;8.33;7.53;;;;;;;;;;5075066;28;20890;-66
2023/08/11 01:16:21;;;;;;;11.00;7.60;;;;;;;;;;5074487;28;20989;-66
2023/08/11 01:18:49;;;;;;;11.33;8.33;;;;;;;;;;5074230;28;20482;-66
2023/08/11 01:21:18;;;;;;;12.47;8.43;;;;;;;;;;5074623;28;20535;-65
2023/08/11 01:23:46;;;;;;;11.37;9.40;;;;;;;;;;5074834;28;20450;-66
2023/08/11 01:26:14;;;;;;;13.10;10.97;;;;;;;;;;5074225;28;20522;-66
2023/08/11 01:28:42;;;;;;;11.30;9.20;;;;;;;;;;5074257;28;20451;-66
2023/08/11 01:31:10;;;;;;;11.33;10.13;;;;;;;;;;5074351;28;20451;-65
2023/08/11 01:33:38;;;;;;;12.30;10.97;;;;;;;;;;5074419;28;20540;-65
2023/08/11 01:36:05;;;;;;;14.27;8.27;;;;;;;;;;5073951;28;20436;-65
2023/08/11 01:38:32;;;;;;;12.60;9.40;;;;;;;;;;5073883;28;20483;-65
2023/08/11 01:41:01;;;;;;;11.03;8.90;;;;;;;;;;5074196;28;20450;-65
2023/08/11 01:43:29;;;;;;;10.57;9.37;;;;;;;;;;5074389;28;20439;-65
2023/08/11 01:45:57;;;;;;;16.63;9.23;;;;;;;;;;5073708;28;20530;-65
2023/08/11 01:48:25;;;;;;;10.57;9.20;;;;;;;;;;5074033;28;20440;-65
2023/08/11 01:50:52;;;;;;;16.20;9.30;;;;;;;;;;5073568;28;20445;-65
2023/08/11 01:53:19;;;;;;;12.07;9.90;;;;;;;;;;5073865;28;20478;-66
2023/08/11 01:55:46;;;;;;;11.30;10.10;;;;;;;;;;5074212;28;20785;-65
2023/08/11 01:58:14;;;;;;;13.93;9.70;;;;;;;;;;5073545;28;20482;-65
2023/08/11 02:00:42;;;;;;;11.50;9.40;;;;;;;;;;5073467;28;20521;-65
2023/08/11 02:03:09;;;;;;;10.73;9.60;;;;;;;;;;5073511;28;20487;-65
2023/08/11 02:05:36;;;;;;;13.77;11.10;;;;;;;;;;5073618;28;20927;-66
2023/08/11 02:08:04;;;;;;;11.83;9.10;;;;;;;;;;5073932;28;20530;-66
2023/08/11 02:10:32;;;;;;;14.67;8.93;;;;;;;;;;5073681;28;20446;-66
2023/08/11 02:13:00;;;;;;;16.00;9.70;;;;;;;;;;5074068;28;20524;-66
2023/08/11 02:15:29;;;;;;;12.77;9.73;;;;;;;;;;5073516;28;20533;-66
2023/08/11 02:17:56;;;;;;;12.20;9.17;;;;;;;;;;5073568;28;20531;-66
2023/08/11 02:20:23;;;;;;;12.40;9.80;;;;;;;;;;5073136;28;20546;-66
2023/08/11 02:22:51;;;;;;;15.03;10.20;;;;;;;;;;5073029;28;20446;-66
2023/08/11 02:25:18;;;;;;;11.70;10.53;;;;;;;;;;5072867;28;20482;-66
2023/08/11 02:27:45;;;;;;;12.37;10.20;;;;;;;;;;5073030;28;20524;-66
2023/08/11 02:30:14;;;;;;;11.47;9.60;;;;;;;;;;5073107;28;20928;-66
2023/08/11 02:32:45;;;;;;;13.90;10.20;;;;;;;;;;5072943;28;20797;-66
2023/08/11 02:35:12;;;;;;;9.43;8.33;;;;;;;;;;5073046;28;20932;-66
2023/08/11 02:37:40;;;;;;;14.50;10.43;;;;;;;;;;5072981;28;20441;-66
2023/08/11 02:40:09;;;;;;;10.57;9.10;;;;;;;;;;5072787;28;20482;-66
2023/08/11 02:42:36;;;;;;;12.03;9.33;;;;;;;;;;5072896;28;20956;-66
2023/08/11 02:45:04;;;;;;;14.53;10.20;;;;;;;;;;5073148;28;20437;-66
2023/08/11 02:47:32;;;;;;;13.97;9.80;;;;;;;;;;5074078;28;20448;-66
2023/08/11 02:50:00;;;;;;;10.93;9.37;;;;;;;;;;5072782;28;20436;-67
2023/08/11 02:52:27;;;;;;;16.97;10.20;;;;;;;;;;5072802;28;20528;-66
2023/08/11 02:54:55;;;;;;;12.70;9.70;;;;;;;;;;5073441;28;20559;-66
2023/08/11 02:57:22;;;;;;;13.63;9.90;;;;;;;;;;5072677;28;20436;-66
2023/08/11 02:59:49;;;;;;;11.83;10.60;;;;;;;;;;5072930;28;20912;-66
2023/08/11 03:02:17;;;;;;;13.83;10.90;;;;;;;;;;5072607;28;20442;-66
2023/08/11 03:04:44;;;;;;;11.80;10.27;;;;;;;;;;5073211;28;20435;-66
2023/08/11 03:07:13;;;;;;;12.87;10.23;;;;;;;;;;5073107;28;20529;-66
2023/08/11 03:09:40;;;;;;;13.93;9.70;;;;;;;;;;5072963;28;20435;-66
2023/08/11 03:12:08;;;;;;;16.27;10.17;;;;;;;;;;5072557;28;20440;-66
2023/08/11 03:14:36;;;;;;;12.13;10.93;;;;;;;;;;5073033;28;20936;-66
2023/08/11 03:17:05;;;;;;;14.87;9.80;;;;;;;;;;5073276;28;20440;-66
2023/08/11 03:19:32;;;;;;;12.63;10.60;;;;;;;;;;5072777;28;20483;-66
2023/08/11 03:21:59;;;;;;;12.67;10.90;;;;;;;;;;5072715;28;20518;-66
2023/08/11 03:24:28;;;;;;;12.43;11.13;;;;;;;;;;5073379;28;20447;-66
2023/08/11 03:26:55;;;;;;;10.50;9.40;;;;;;;;;;5072909;28;20432;-66
2023/08/11 03:29:22;;;;;;;11.73;10.53;;;;;;;;;;5072432;28;20528;-66
2023/08/11 03:31:50;;;;;;;14.00;11.23;;;;;;;;;;5072756;28;20527;-65
2023/08/11 03:34:17;;;;;;;13.80;10.30;;;;;;;;;;5072635;28;20535;-66
2023/08/11 03:36:44;;;;;;;12.63;10.17;;;;;;;;;;5074463;28;20867;-66
2023/08/11 03:39:11;;;;;;;12.63;11.40;;;;;;;;;;5077128;28;20501;-65
2023/08/11 03:41:40;;;;;;;21.80;11.33;;;;;;;;;;5076719;28;20447;-66
2023/08/11 03:44:07;;;;;;;12.83;10.70;;;;;;;;;;5076415;28;20895;-66
2023/08/11 03:46:35;;;;;;;12.27;10.93;;;;;;;;;;5076322;28;20461;-66
2023/08/11 03:49:02;;;;;;;14.53;10.87;;;;;;;;;;5076206;28;20474;-66
2023/08/11 03:51:29;;;;;;;14.30;10.80;;;;;;;;;;5075064;28;20475;-66
2023/08/11 03:53:58;;;;;;;14.23;11.33;;;;;;;;;;5074852;28;20921;-65
2023/08/11 03:56:25;;;;;;;17.60;11.20;;;;;;;;;;5074825;28;20429;-66
2023/08/11 03:58:54;;;;;;;12.63;10.53;;;;;;;;;;5075132;28;20574;-66
2023/08/11 04:01:21;;;;;;;14.00;9.90;;;;;;;;;;5075348;28;20461;-66
2023/08/11 04:03:48;;;;;;;10.97;9.90;;;;;;;;;;5075086;28;20483;-66
2023/08/11 04:06:15;;;;;;;16.23;11.07;;;;;;;;;;5075373;28;20884;-66
2023/08/11 04:08:44;;;;;;;15.93;10.80;;;;;;;;;;5074711;28;20436;-66
2023/08/11 04:11:12;;;;;;;15.57;11.33;;;;;;;;;;5074895;28;20443;-66
2023/08/11 04:13:39;;;;;;;14.37;11.87;;;;;;;;;;5075518;28;20447;-66
2023/08/11 04:16:09;;;;;;;14.13;12.20;;;;;;;;;;5075834;28;20539;-65
2023/08/11 04:18:36;;;;;;;13.20;11.27;;;;;;;;;;5079986;28;20432;-66
2023/08/11 04:21:04;;;;;;;12.97;11.67;;;;;;;;;;5095957;28;20459;-66
2023/08/11 04:23:31;;;;;;;13.27;11.67;;;;;;;;;;5095455;28;20442;-66
2023/08/11 04:25:58;;;;;;;16.50;12.70;;;;;;;;;;5095401;28;20482;-66
2023/08/11 04:28:26;;;;;;;16.20;12.70;;;;;;;;;;5095221;28;20517;-65
2023/08/11 04:30:55;;;;;;;18.27;13.27;;;;;;;;;;5095272;28;20523;-66
2023/08/11 04:33:24;;;;;;;21.47;18.70;;;;;;;;;;5094923;28;20499;-66
2023/08/11 04:35:51;;;;;;;15.27;12.70;;;;;;;;;;5095736;28;20472;-68
2023/08/11 04:38:20;;;;;;;17.00;13.13;;;;;;;;;;5095063;28;20448;-67
2023/08/11 04:40:50;;;;;;;19.30;12.97;;;;;;;;;;5095737;28;20479;-65
2023/08/11 04:43:18;;;;;;;15.80;12.43;;;;;;;;;;5095533;28;20450;-65
2023/08/11 04:45:46;;;;;;;16.20;13.20;;;;;;;;;;5095570;28;20476;-65
2023/08/11 04:48:13;;;;;;;20.70;12.40;;;;;;;;;;5094726;28;20524;-66
2023/08/11 04:50:41;;;;;;;13.63;11.90;;;;;;;;;;5094806;28;20504;-65
2023/08/11 04:53:09;;;;;;;14.90;11.60;;;;;;;;;;5094484;28;20503;-65
2023/08/11 04:55:36;;;;;;;16.17;12.10;;;;;;;;;;5095202;28;20435;-65
2023/08/11 04:58:04;;;;;;;17.20;11.87;;;;;;;;;;5095052;28;20439;-65
2023/08/11 05:00:33;;;;;;;12.53;11.40;;;;;;;;;;5095065;28;20485;-64
2023/08/11 05:03:00;;;;;;;21.77;12.07;;;;;;;;;;5095088;28;20538;-65
2023/08/11 05:05:27;;;;;;;14.77;11.60;;;;;;;;;;5094462;28;20526;-64
2023/08/11 05:07:56;;;;;;;16.17;11.60;;;;;;;;;;5094580;28;20526;-64
2023/08/11 05:10:23;;;;;;;10.83;9.83;;;;;;;;;;5094650;28;20865;-64
2023/08/11 05:12:50;;;;;;;15.47;13.43;;;;;;;;;;5094539;28;20439;-65
2023/08/11 05:15:18;;;;;;;21.00;11.40;;;;;;;;;;5094253;28;20441;-64
2023/08/11 05:17:45;;;;;;;13.73;11.53;;;;;;;;;;5094714;28;20447;-65
2023/08/11 05:20:15;;;;;;;12.30;10.10;;;;;;;;;;5095095;28;20478;-64
2023/08/11 05:22:43;;;;;;;14.13;11.87;;;;;;;;;;5094412;28;20442;-64
2023/08/11 05:25:12;;;;;;;14.70;9.80;;;;;;;;;;5095127;28;20443;-64
2023/08/11 05:27:39;;;;;;;27.27;11.70;;;;;;;;;;5094185;28;20956;-64
2023/08/11 05:30:08;;;;;;;22.17;11.33;;;;;;;;;;5094427;28;20455;-64
2023/08/11 05:32:35;;;;;;;11.27;9.47;;;;;;;;;;5094565;28;20514;-64
2023/08/11 05:35:03;;;;;;;11.13;9.80;;;;;;;;;;5094207;28;20474;-64
2023/08/11 05:37:30;;;;;;;17.07;11.87;;;;;;;;;;5093985;28;20444;-64
2023/08/11 05:39:58;;;;;;;11.67;9.90;;;;;;;;;;5093517;28;20532;-64
2023/08/11 05:42:27;;;;;;;21.50;17.03;;;;;;;;;;5093815;28;20444;-65
2023/08/11 05:44:54;;;;;;;12.10;10.30;;;;;;;;;;5093900;28;20439;-64
2023/08/11 05:47:21;;;;;;;14.57;10.20;;;;;;;;;;5093620;28;20531;-65
2023/08/11 05:49:49;;;;;;;15.13;9.50;;;;;;;;;;5093919;28;20771;-64
2023/08/11 05:52:16;;;;;;;19.83;10.17;;;;;;;;;;5093694;28;20541;-64
2023/08/11 05:54:43;;;;;;;17.10;9.43;;;;;;;;;;5093476;28;20507;-64
2023/08/11 05:57:10;;;;;;;11.13;10.10;;;;;;;;;;5094231;28;20441;-64
2023/08/11 05:59:39;;;;;;;13.90;8.63;;;;;;;;;;5093160;28;20510;-64
2023/08/11 06:02:06;;;;;;;10.00;8.40;;;;;;;;;;5094032;28;20496;-64
2023/08/11 06:04:33;;;;;;;29.87;10.80;;;;;;;;;;5093772;28;20427;-64
2023/08/11 06:07:00;;;;;;;18.00;9.13;;;;;;;;;;5094037;28;20966;-64
2023/08/11 06:09:28;;;;;;;23.53;9.10;;;;;;;;;;5093203;28;20484;-64
2023/08/11 06:11:55;;;;;;;15.20;7.60;;;;;;;;;;5093327;28;20438;-65
2023/08/11 06:14:22;;;;;;;16.80;8.50;;;;;;;;;;5093606;28;20440;-65
2023/08/11 06:16:51;;;;;;;10.10;8.07;;;;;;;;;;5093581;28;20441;-64
2023/08/11 06:19:18;;;;;;;11.20;7.57;;;;;;;;;;5093395;28;20470;-65
2023/08/11 06:21:46;;;;;;;13.93;11.40;;;;;;;;;;5094229;28;20779;-64
2023/08/11 06:24:13;;;;;;;14.70;12.33;;;;;;;;;;5092993;28;20454;-64
2023/08/11 06:26:45;;;;;;;15.33;10.80;;;;;;;;;;5093358;28;20767;-64
2023/08/11 06:29:13;;;;;;;14.43;8.63;;;;;;;;;;5093503;28;20498;-64
2023/08/11 06:31:42;;;;;;;10.37;6.80;;;;;;;;;;5093068;28;21003;-64
2023/08/11 06:34:11;;;;;;;14.00;7.50;;;;;;;;;;5092721;28;20545;-64
2023/08/11 06:36:38;;;;;;;10.97;7.13;;;;;;;;;;5093185;28;20441;-64
2023/08/11 06:39:06;;;;;;;26.33;6.73;;;;;;;;;;5093342;28;20978;-64
2023/08/11 06:41:33;;;;;;;21.13;15.53;;;;;;;;;;5093135;28;20483;-65
2023/08/11 06:44:00;;;;;;;15.80;10.43;;;;;;;;;;5092854;28;20445;-64
2023/08/11 06:46:27;;;;;;;8.03;6.50;;;;;;;;;;5093033;28;20439;-65
2023/08/11 06:48:54;;;;;;;15.77;6.10;;;;;;;;;;5092676;28;20443;-64
2023/08/11 06:51:23;;;;;;;6.17;5.47;;;;;;;;;;5093311;28;20449;-65
2023/08/11 06:53:50;;;;;;;7.17;5.20;;;;;;;;;;5092752;28;21045;-64
2023/08/11 06:56:17;;;;;;;6.57;5.97;;;;;;;;;;5093084;28;20471;-64
2023/08/11 06:58:45;;;;;;;6.43;5.33;;;;;;;;;;5093185;28;20433;-65
2023/08/11 07:01:14;;;;;;;7.70;5.47;;;;;;;;;;5093210;28;20479;-65
2023/08/11 07:03:41;;;;;;;10.33;5.47;;;;;;;;;;5093468;28;20439;-64
2023/08/11 07:06:09;;;;;;;10.90;6.70;;;;;;;;;;5093148;28;20435;-65
2023/08/11 07:08:37;;;;;;;7.00;5.57;;;;;;;;;;5092785;28;20974;-65
2023/08/11 07:11:04;;;;;;;9.00;6.37;;;;;;;;;;5094982;28;20542;-64
2023/08/11 07:13:32;;;;;;;12.90;5.60;;;;;;;;;;5096926;28;20529;-65
2023/08/11 07:15:59;;;;;;;8.30;5.30;;;;;;;;;;5097103;28;20815;-64
2023/08/11 07:18:27;;;;;;;10.17;5.60;;;;;;;;;;5097239;28;20442;-64
2023/08/11 07:20:54;;;;;;;4.93;4.43;;;;;;;;;;5096707;28;20475;-64
2023/08/11 07:23:21;;;;;;;11.90;5.00;;;;;;;;;;5096711;28;20496;-65
2023/08/11 07:25:50;;;;;;;6.40;4.30;;;;;;;;;;5096578;28;20514;-64
2023/08/11 07:28:17;;;;;;;5.97;5.47;;;;;;;;;;5096175;28;20881;-64
2023/08/11 07:30:44;;;;;;;11.70;6.17;;;;;;;;;;5096245;28;20459;-64
2023/08/11 07:33:12;;;;;;;14.03;7.43;;;;;;;;;;5096550;28;20489;-65
2023/08/11 07:35:39;;;;;;;11.60;6.57;;;;;;;;;;5096046;28;20991;-64
2023/08/11 07:38:06;;;;;;;9.80;6.00;;;;;;;;;;5096555;28;20496;-64
2023/08/11 07:40:33;;;;;;;17.70;7.30;;;;;;;;;;5095807;28;20561;-64
2023/08/11 07:43:02;;;;;;;12.83;6.50;;;;;;;;;;5096008;28;20435;-64
2023/08/11 07:45:29;;;;;;;8.90;5.43;;;;;;;;;;5096240;28;20439;-64
2023/08/11 07:47:56;;;;;;;6.20;5.10;;;;;;;;;;5096082;28;20936;-64
2023/08/11 07:50:24;;;;;;;7.17;4.90;;;;;;;;;;5096108;28;20881;-64
2023/08/11 07:52:51;;;;;;;5.60;4.33;;;;;;;;;;5095841;28;20431;-64
2023/08/11 07:55:18;;;;;;;12.33;5.43;;;;;;;;;;5095817;28;20526;-64
2023/08/11 07:57:46;;;;;;;9.63;4.40;;;;;;;;;;5096065;28;20451;-64
2023/08/11 08:00:16;;;;;;;6.10;4.03;;;;;;;;;;5095765;28;20976;-64
2023/08/11 08:02:44;;;;;;;12.73;6.30;;;;;;;;;;5096160;28;20928;-64
2023/08/11 08:05:11;;;;;;;13.27;4.83;;;;;;;;;;5096252;28;20471;-65
2023/08/11 08:07:38;;;;;;;8.27;4.50;;;;;;;;;;5096352;28;20510;-65
2023/08/11 08:10:08;;;;;;;5.97;5.27;;;;;;;;;;5095876;28;21015;-64
2023/08/11 08:12:36;;;;;;;11.40;4.93;;;;;;;;;;5095665;28;20953;-64
2023/08/11 08:15:04;;;;;;;13.93;3.63;;;;;;;;;;5095759;28;20504;-64
2023/08/11 08:17:32;;;;;;;8.90;4.63;;;;;;;;;;5096075;28;20447;-64
2023/08/11 08:20:00;;;;;;;6.83;3.43;;;;;;;;;;5096242;28;20479;-64
2023/08/11 08:22:27;;;;;;;5.27;3.73;;;;;;;;;;5095242;28;20863;-64
2023/08/11 08:24:54;;;;;;;6.03;3.60;;;;;;;;;;5095470;28;20454;-64
2023/08/11 08:27:24;;;;;;;10.70;3.50;;;;;;;;;;5095919;28;20843;-64
2023/08/11 08:29:51;;;;;;;12.67;3.80;;;;;;;;;;5095514;28;20522;-64
2023/08/11 08:32:19;;;;;;;11.67;3.90;;;;;;;;;;5096058;28;20440;-64
2023/08/11 08:34:48;;;;;;;5.60;3.70;;;;;;;;;;5095242;28;20436;-65
2023/08/11 08:37:15;;;;;;;5.47;3.40;;;;;;;;;;5095639;28;20436;-64
2023/08/11 08:39:43;;;;;;;4.60;3.03;;;;;;;;;;5095477;28;20762;-67
2023/08/11 08:42:11;;;;;;;4.30;3.20;;;;;;;;;;5095801;28;20515;-64
2023/08/11 08:44:38;;;;;;;4.80;3.33;;;;;;;;;;5095214;28;21019;-65
2023/08/11 08:47:11;;;;;;;5.23;3.00;;;;;;;;;;5095126;28;20443;-64
2023/08/11 08:49:38;;;;;;;11.30;4.43;;;;;;;;;;5095794;28;20997;-64
2023/08/11 08:52:07;;;;;;;5.10;3.83;;;;;;;;;;5095358;28;20865;-64
2023/08/11 08:54:35;;;;;;;5.40;3.50;;;;;;;;;;5095043;28;20817;-64
2023/08/11 08:57:03;;;;;;;8.77;3.70;;;;;;;;;;5095006;28;20781;-64
2023/08/11 08:59:30;;;;;;;5.83;3.17;;;;;;;;;;5095450;28;20527;-64
2023/08/11 09:01:58;;;;;;;14.47;4.93;;;;;;;;;;5094775;28;21045;-64
2023/08/11 09:04:26;;;;;;;4.93;3.27;;;;;;;;;;5094537;28;20980;-64
2023/08/11 09:06:54;;;;;;;5.67;3.00;;;;;;;;;;5094495;28;21016;-64
2023/08/11 09:09:23;;;;;;;5.60;3.20;;;;;;;;;;5094632;28;20438;-64
2023/08/11 09:11:50;;;;;;;6.30;3.57;;;;;;;;;;5094926;28;20445;-64
2023/08/11 09:14:23;;;;;;;9.63;4.20;;;;;;;;;;5094997;28;20427;-64
2023/08/11 09:16:51;;;;;;;11.50;4.10;;;;;;;;;;5094979;28;20500;-64
2023/08/11 09:19:18;;;;;;;8.13;3.90;;;;;;;;;;5094877;28;20535;-64
2023/08/11 09:21:45;;;;;;;6.80;3.70;;;;;;;;;;5094657;28;20477;-64
2023/08/11 09:24:13;;;;;;;14.30;6.40;;;;;;;;;;5094972;28;20450;-64
2023/08/11 09:26:44;;;;;;;10.03;3.57;;;;;;;;;;5094515;28;20533;-64
2023/08/11 09:29:11;;;;;;;6.10;3.60;;;;;;;;;;5094793;28;20422;-64
2023/08/11 09:31:39;;;;;;;7.93;3.70;;;;;;;;;;5094474;28;20437;-64
2023/08/11 09:34:13;;;;;;;5.27;3.70;;;;;;;;;;5093066;28;20808;-64
2023/08/11 09:36:42;;;;;;;9.43;3.87;;;;;;;;;;5093935;28;20446;-65
2023/08/11 09:39:10;;;;;;;4.30;3.33;;;;;;;;;;5094075;28;20938;-65
2023/08/11 09:41:44;;;;;;;3.10;2.80;;;;;;;;;;5093983;28;20480;-64
2023/08/11 09:44:14;;;;;;;4.50;3.07;;;;;;;;;;5094155;28;20475;-64
2023/08/11 09:46:42;;;;;;;7.43;3.60;;;;;;;;;;5094256;28;20445;-64
2023/08/11 09:49:09;;;;;;;5.70;3.50;;;;;;;;;;5093931;28;20485;-64
2023/08/11 09:51:37;;;;;;;3.67;3.20;;;;;;;;;;5094150;28;20871;-64
2023/08/11 09:54:06;;;;;;;3.93;3.47;;;;;;;;;;5093918;28;20620;-64
2023/08/11 09:56:35;;;;;;;9.63;3.93;;;;;;;;;;5094398;28;20441;-64
2023/08/11 09:59:05;;;;;;;13.40;3.47;;;;;;;;;;5094992;28;20438;-64
2023/08/11 10:01:35;;;;;;;7.13;3.30;;;;;;;;;;5094230;28;20508;-64
2023/08/11 10:04:07;;;;;;;11.53;3.83;;;;;;;;;;5094445;28;20438;-64
2023/08/11 10:06:35;;;;;;;4.77;3.70;;;;;;;;;;5093748;28;20461;-65
2023/08/11 10:09:03;;;;;;;5.30;3.30;;;;;;;;;;5093787;28;20773;-64
2023/08/11 10:11:32;;;;;;;6.33;3.70;;;;;;;;;;5093482;28;21017;-65
2023/08/11 10:14:02;;;;;;;6.93;3.20;;;;;;;;;;5094264;28;20533;-64
2023/08/11 10:16:31;;;;;;;2.93;2.60;;;;;;;;;;5093318;28;20534;-65
2023/08/11 10:18:59;;;;;;;5.60;3.70;;;;;;;;;;5093182;28;20533;-64
2023/08/11 10:21:26;;;;;;;5.10;3.50;;;;;;;;;;5093355;28;20484;-64
2023/08/11 10:23:54;;;;;;;4.13;3.70;;;;;;;;;;5093650;28;20492;-65
2023/08/11 10:26:22;;;;;;;5.80;3.70;;;;;;;;;;5093265;28;20438;-64
2023/08/11 10:28:50;;;;;;;4.90;3.20;;;;;;;;;;5093856;28;20447;-65
2023/08/11 10:31:17;;;;;;;5.90;3.47;;;;;;;;;;5093216;28;20538;-65
2023/08/11 10:33:51;;;;;;;9.50;3.70;;;;;;;;;;5093131;28;20443;-64
2023/08/11 10:36:19;;;;;;;3.83;3.00;;;;;;;;;;5093520;28;20422;-65
2023/08/11 10:38:46;;;;;;;7.40;3.40;;;;;;;;;;5093712;28;20470;-64
2023/08/11 10:41:19;;;;;;;6.47;3.17;;;;;;;;;;5093713;28;20478;-65
2023/08/11 10:43:48;;;;;;;4.40;3.37;;;;;;;;;;5093582;28;20992;-65
2023/08/11 10:46:20;;;;;;;5.93;3.60;;;;;;;;;;5092842;28;20431;-65
2023/08/11 10:48:47;;;;;;;7.30;3.87;;;;;;;;;;5093491;28;20448;-65
2023/08/11 10:51:26;;;;;;;3.40;3.10;;;;;;;;;;5093676;28;20874;-65
2023/08/11 10:53:53;;;;;;;6.73;3.80;;;;;;;;;;5093429;28;20569;-65
2023/08/11 10:56:28;;;;;;;12.33;11.13;;;;;;;;;;5093372;28;20932;-64
2023/08/11 10:59:05;;;;;;;5.93;4.10;;;;;;;;;;5093577;28;20441;-65
2023/08/11 11:01:33;;;;;;;6.63;3.13;;;;;;;;;;5093309;28;20466;-65
2023/08/11 11:04:01;;;;;;;4.30;2.90;;;;;;;;;;5093133;28;20450;-65
2023/08/11 11:06:30;;;;;;;7.97;3.13;;;;;;;;;;5092538;28;20442;-66
2023/08/11 11:08:57;;;;;;;3.80;3.37;;;;;;;;;;5092603;28;20502;-64
2023/08/11 11:11:24;;;;;;;8.17;3.07;;;;;;;;;;5093139;28;20538;-65
2023/08/11 11:13:51;;;;;;;3.40;2.80;;;;;;;;;;5092891;28;20905;-65
2023/08/11 11:16:19;;;;;;;13.93;3.60;;;;;;;;;;5092558;28;20441;-65
2023/08/11 11:18:47;;;;;;;5.23;3.10;;;;;;;;;;5092762;28;20527;-64
2023/08/11 11:21:14;;;;;;;3.50;3.20;;;;;;;;;;5092439;28;20975;-65
2023/08/11 11:23:46;;;;;;;3.67;2.87;;;;;;;;;;5092880;28;20952;-64
2023/08/11 11:26:16;;;;;;;6.03;3.83;;;;;;;;;;5093049;28;20915;-64
2023/08/11 11:28:43;;;;;;;5.33;3.90;;;;;;;;;;5092831;28;20471;-64
2023/08/11 11:31:10;;;;;;;5.63;3.40;;;;;;;;;;5092845;28;20854;-65
2023/08/11 11:33:37;;;;;;;6.07;3.47;;;;;;;;;;5092638;28;20892;-64
2023/08/11 11:36:05;;;;;;;5.17;3.60;;;;;;;;;;5092405;28;20510;-65
2023/08/11 11:38:32;;;;;;;5.43;2.97;;;;;;;;;;5092877;28;20866;-65
2023/08/11 11:41:01;;;;;;;8.07;3.87;;;;;;;;;;5092576;28;20442;-67
2023/08/11 11:43:28;;;;;;;5.40;3.70;;;;;;;;;;5092506;28;20526;-63
2023/08/11 11:46:01;;;;;;;6.80;3.77;;;;;;;;;;5092858;28;20525;-63
2023/08/11 11:48:29;;;;;;;16.37;4.50;;;;;;;;;;5092546;28;20424;-63
2023/08/11 11:50:56;;;;;;;8.13;3.90;;;;;;;;;;5092593;28;20498;-63
2023/08/11 11:53:23;;;;;;;5.93;3.90;;;;;;;;;;5091013;28;20467;-63
2023/08/11 11:55:53;;;;;;;5.83;3.23;;;;;;;;;;5083761;28;20442;-64
2023/08/11 11:58:22;;;;;;;5.73;3.77;;;;;;;;;;5094313;28;20435;-63
2023/08/11 12:00:49;;;;;;;23.93;4.70;;;;;;;;;;5095507;28;20484;-63
2023/08/11 12:03:18;;;;;;;12.00;5.40;;;;;;;;;;5095198;28;20773;-63
2023/08/11 12:05:45;;;;;;;35.50;6.67;;;;;;;;;;5094990;28;20446;-63
2023/08/11 12:08:19;;;;;;;6.90;3.90;;;;;;;;;;5095098;28;20534;-63
2023/08/11 12:10:47;;;;;;;38.97;5.67;;;;;;;;;;5095357;28;20856;-62
2023/08/11 12:13:14;;;;;;;16.07;4.00;;;;;;;;;;5094757;28;20533;-62
2023/08/11 12:15:43;;;;;;;10.47;4.03;;;;;;;;;;5095632;28;21014;-62
2023/08/11 12:18:10;;;;;;;8.53;3.90;;;;;;;;;;5095245;28;20454;-62
2023/08/11 12:20:37;;;;;;;7.10;4.30;;;;;;;;;;5095653;28;20449;-62
2023/08/11 12:23:05;;;;;;;5.70;4.07;;;;;;;;;;5095547;28;20899;-63
2023/08/11 12:25:32;;;;;;;13.83;5.13;;;;;;;;;;5095428;28;20439;-62
2023/08/11 12:28:01;;;;;;;6.90;3.53;;;;;;;;;;5095325;28;20444;-63
2023/08/11 12:30:28;;;;;;;5.93;3.90;;;;;;;;;;5095898;28;20448;-63
2023/08/11 12:32:57;;;;;;;7.03;3.47;;;;;;;;;;5095573;28;20538;-63
2023/08/11 12:35:24;;;;;;;3.50;3.20;;;;;;;;;;5094961;28;20432;-62
2023/08/11 12:37:52;;;;;;;4.10;3.63;;;;;;;;;;5095308;28;20522;-63
2023/08/11 12:40:21;;;;;;;5.73;4.00;;;;;;;;;;5095478;28;20813;-64
2023/08/11 12:42:49;;;;;;;4.07;3.50;;;;;;;;;;5094778;28;20567;-64
2023/08/11 12:45:17;;;;;;;4.53;4.07;;;;;;;;;;5094954;28;20518;-65
2023/08/11 12:47:44;;;;;;;12.90;3.73;;;;;;;;;;5095461;28;20442;-65
2023/08/11 12:50:12;;;;;;;4.77;3.43;;;;;;;;;;5095240;28;20489;-64
2023/08/11 12:52:40;;;;;;;4.30;3.10;;;;;;;;;;5095170;28;20526;-65
2023/08/11 12:55:08;;;;;;;4.30;3.40;;;;;;;;;;5094654;28;20500;-64
2023/08/11 12:57:35;;;;;;;4.13;3.37;;;;;;;;;;5094944;28;20535;-64
2023/08/11 13:00:02;;;;;;;7.93;3.90;;;;;;;;;;5094548;28;20424;-64
2023/08/11 13:02:29;;;;;;;6.13;3.43;;;;;;;;;;5094745;28;20897;-64
2023/08/11 13:05:02;;;;;;;4.47;3.47;;;;;;;;;;5095131;28;20525;-64
2023/08/11 13:07:31;;;;;;;3.77;3.03;;;;;;;;;;5095177;28;20777;-65
2023/08/11 13:09:58;;;;;;;5.27;3.57;;;;;;;;;;5094685;28;20508;-64
2023/08/11 13:12:25;;;;;;;4.00;3.67;;;;;;;;;;5094457;28;20427;-63
2023/08/11 13:14:53;;;;;;;4.73;3.40;;;;;;;;;;5081263;28;20440;-63
2023/08/11 13:17:20;;;;;;;4.07;3.50;;;;;;;;;;5074297;28;20448;-63
2023/08/11 13:19:47;;;;;;;2.97;2.70;;;;;;;;;;5073568;28;20416;-63
2023/08/11 13:22:14;;;;;;;5.17;3.40;;;;;;;;;;5074234;28;20538;-64
2023/08/11 13:24:43;;;;;;;3.50;3.20;;;;;;;;;;5074082;28;20423;-63
2023/08/11 13:27:11;;;;;;;4.87;3.57;;;;;;;;;;5073903;28;20536;-63
2023/08/11 13:29:38;;;;;;;3.40;3.10;;;;;;;;;;5074176;28;20838;-63
2023/08/11 13:32:05;;;;;;;3.77;3.40;;;;;;;;;;5074286;28;20421;-63
2023/08/11 13:34:33;;;;;;;9.13;3.20;;;;;;;;;;5073829;28;20854;-63
2023/08/11 13:37:00;;;;;;;3.87;3.33;;;;;;;;;;5073974;28;20784;-64
2023/08/11 13:39:27;;;;;;;3.73;3.27;;;;;;;;;;5073633;28;20476;-64
2023/08/11 13:41:56;;;;;;;4.07;3.47;;;;;;;;;;5073730;28;20458;-64
2023/08/11 13:44:23;;;;;;;5.43;3.50;;;;;;;;;;5073836;28;20439;-63
2023/08/11 13:46:50;;;;;;;3.50;3.20;;;;;;;;;;5073946;28;20447;-64
2023/08/11 13:49:17;;;;;;;4.90;3.40;;;;;;;;;;5074112;28;20514;-63
2023/08/11 13:51:45;;;;;;;5.00;3.43;;;;;;;;;;5073866;28;20794;-63
2023/08/11 13:54:12;;;;;;;4.00;3.70;;;;;;;;;;5072909;28;20450;-63
2023/08/11 13:56:39;;;;;;;3.87;3.20;;;;;;;;;;5093329;28;20476;-64
2023/08/11 13:59:08;;;;;;;3.80;3.47;;;;;;;;;;5093538;28;20448;-64
2023/08/11 14:01:35;;;;;;;4.33;3.20;;;;;;;;;;5093760;28;20864;-62
2023/08/11 14:04:02;;;;;;;3.90;3.50;;;;;;;;;;5093769;28;20496;-63
2023/08/11 14:06:28;;;;;;;3.60;3.30;;;;;;;;;;5093850;28;20931;-62
2023/08/11 14:08:57;;;;;;;6.03;3.80;;;;;;;;;;5094302;28;20435;-63
2023/08/11 14:11:24;;;;;;;4.10;3.37;;;;;;;;;;5094099;28;20505;-63
2023/08/11 14:13:52;;;;;;;3.67;3.37;;;;;;;;;;5094212;28;20443;-62
2023/08/11 14:16:21;;;;;;;4.77;3.40;;;;;;;;;;5093464;28;20419;-62
2023/08/11 14:18:48;;;;;;;5.07;3.40;;;;;;;;;;5093598;28;20485;-62
2023/08/11 14:21:17;;;;;;;3.70;3.40;;;;;;;;;;5092610;28;20950;-62
2023/08/11 14:23:45;;;;;;;3.90;3.00;;;;;;;;;;5093322;28;20517;-62
2023/08/11 14:26:12;;;;;;;4.17;3.00;;;;;;;;;;5093260;28;20897;-62
2023/08/11 14:28:40;;;;;;;4.33;3.63;;;;;;;;;;5094236;28;20749;-62
2023/08/11 14:31:07;;;;;;;5.80;2.80;;;;;;;;;;5093133;28;20493;-65
2023/08/11 14:33:36;;;;;;;3.63;2.50;;;;;;;;;;5093289;28;20418;-62
2023/08/11 14:36:04;;;;;;;5.67;3.13;;;;;;;;;;5093426;28;20413;-62
2023/08/11 14:38:31;;;;;;;8.67;3.73;;;;;;;;;;5093502;28;20527;-62